Terminal Aerodrome Forecast
Issued by NWS

Home | Current Version | Previous Version | Text Only | Print | Product List | Glossary Off
Versions: 1 2 3 4 5 6 7 8 9 10 11 12 13

000
FTUS43 KMPX 112331
TAFAXN
TAF
KAXN 112331Z 1200/1224 33015G25KT P6SM SCT015
     FM120400 32012KT P6SM SKC
     FM120900 31009KT P6SM BKN080
     FM121300 27006KT P6SM BKN025 OVC080
     FM121500 20006KT P6SM OVC020=

USA.gov is the U.S. government's official web portal to all federal, state and local government web resources and services.